Terminal Aerodrome Forecast
Issued by NWS

Home | Current Version | Previous Version | Graphics & Text | Print | Product List | Glossary On
Versions: 1 2 3 4 5 6 7 8 9 10 11 12 13 14 15 16 17
227
FTUS43 KMPX 250533
TAFRWF
TAF
KRWF 250533Z 2506/2606 18007KT P6SM FEW080
     FM251700 28010KT P6SM FEW070
     FM260000 29005KT P6SM SKC=

USA.gov is the U.S. government's official web portal to all federal, state and local government web resources and services.